Stuttgart, Kansas
Current Conditions -  °F | °C
As of 1:53 AM on Friday 28 Nov 2014 (Local Time) from KHLC Reporting Station
Clear Clear  
Wind Chill: 32°   Ceiling: Unl
Heat Index: 38°   Visibility: 10mi
Dew Point: 27°   Wind: 8mph
Humidity: 65%   Direction: 260°W
Pressure: 29.96"   Gusts: NA
Location:  39.8°N, 99.45°W
Report Text: KHLC 280753Z AUTO 26007KT 10SM CLR 03/M03 A2996 RMK AO2 SLP152 T00331028
Loading
Personal Weather Stations






























Interactive Weather Map New forecast layout! Learn more

10-Day Weather Forecast

Advertisements
Track Severe Weather on mobile